INFORMACIÓN METAR y TAF
METAR FOR DTTJ
ADDS - METARS form results

(0240 UTC 15 August 2020)
Data provider http://aviationweather.gov/metar/data/
 
METAR text: DTTJ 150230Z VRB02KT 26/20 Q1012
Conditions at: DTTJ (DJERBA MELLITA , TN) observed 0230 UTC 15 August 2020
Temperature: 26.0°C (79°F)
Dewpoint: 20.0°C (68°F) [RH = 70%]
Pressure (altimeter): 29.88 inches Hg (1012.0 mb)
Winds: variable direction winds at 2 MPH (2 knots; 1.0 m/s)
Visibility: missing
Ceiling: unknown
Clouds: missing
Weather: no significant weather observed at this time

METAR text: DTTJ 150200Z 16006KT 26/19 Q1012
Conditions at: DTTJ (DJERBA MELLITA , TN) observed 0200 UTC 15 August 2020
Temperature: 26.0°C (79°F)
Dewpoint: 19.0°C (66°F) [RH = 65%]
Pressure (altimeter): 29.88 inches Hg (1012.0 mb)
Winds: from the SSE (160 degrees) at 7 MPH (6 knots; 3.1 m/s)
Visibility: missing
Ceiling: unknown
Clouds: missing
Weather: no significant weather observed at this time

Forecast for: DTTJ (DJERBA MELLITA , TN)
Text: TAF DTTJ 142300Z 1500/1524 16008KT CAVOK
Forecast period: 0000 to 1400 UTC 15 August 2020
Forecast type: FROM: standard forecast or significant change
Winds: from the SSE (160 degrees) at 9 MPH (8 knots; 4.1 m/s)
Visibility: 6 or more miles (10+ km)
Ceiling: unknown
Clouds: missing
Weather: NSW  (no significant weather)
Text: BECMG 1514/1516 11011KT
Forecast period: 1400 UTC 15 August 2020 to 0000 UTC 16 August 2020
Forecast type: BECOMING: Conditions expected to become as follows by 1600 UTC 15 August 2020
Winds: from the ESE (110 degrees) at 13 MPH (11 knots; 5.7 m/s)
Visibility: 6 or more miles (10+ km)
Ceiling: unknown
Clouds: missing
Weather: NSW  (no significant weather)

MAPA DE AEROPUERTO

INFORMACIÓN DE PISTA
Pista 09 Longitud 10171 ft Ancho 148 ft
Elevación 9 ft Umbral desplazado 0 ft Rumbo de pista 88
Pista 27 Longitud 10171 ft Ancho 148 ft
Elevación 18 ft Umbral desplazado 0 ft Rumbo de pista 268

FRECUANCIAS DEL AEROPUERTO
Tipo APP Nombre DJERBA APP Frecuencia 120.3 MHZ
Tipo TWR Nombre DJERBA TWR Frecuencia 118.15 MHZ

RADIO AYUDAS DEL AEROPUERTO
Tipo VOR-DME Nombre Djerba Frecuencia 112200 KHZ